Camas, Washington
Current Conditions -  °F | °C
As of 2:53 PM on Saturday 20 Dec 2014 (Local Time) from KTTD Reporting Station
Light Rain Light Rain  
Wind Chill:   Ceiling: 1200
Heat Index:   Visibility: 8mi
Dew Point:   Wind: 6mph
Humidity: 93%   Direction: 70°ENE
Pressure: 29.63"   Gusts: NA
Location:  45.59°N, 122.4°W
Report Text: KTTD 202253Z 07005KT 8SM -RA OVC012 08/07 A2963 RMK AO2 SLP034 P0004 T00780067
Loading
Personal Weather Stations






























Interactive Weather Map New forecast layout! Learn more

10-Day Weather Forecast

Advertisements
Track Severe Weather on mobile